createdAt,value
2023-04-18T09:03:58.566Z,95205.45
2023-04-18T09:06:53.096Z,95205.27
2023-04-18T09:09:26.774Z,95201.41
2023-04-18T09:12:09.264Z,95207.41
2023-04-18T09:14:57.394Z,95195.93
2023-04-18T09:17:46.231Z,95202.96
2023-04-18T09:20:15.665Z,95200.09
2023-04-18T09:23:04.315Z,95209.48
2023-04-18T09:25:35.504Z,95200.41
2023-04-18T09:28:03.251Z,95202.09
2023-04-18T09:30:40.480Z,95196.27
2023-04-18T09:33:09.786Z,95202.27
2023-04-18T09:35:37.555Z,95198.32
2023-04-18T09:38:09.911Z,95201.71
2023-04-18T09:40:38.530Z,95196.31
2023-04-18T09:43:22.045Z,95196.64
2023-04-18T09:45:50.148Z,95190.41
2023-04-18T09:48:17.309Z,95192.65
2023-04-18T09:50:48.172Z,95190.08
2023-04-18T09:53:19.461Z,95195.38
2023-04-18T09:55:54.802Z,95196.55
2023-04-18T09:58:25.639Z,95194.70
2023-04-18T10:00:53.868Z,95190.10
2023-04-18T10:03:24.506Z,95190.38
2023-04-18T10:05:52.033Z,95200.10
2023-04-18T10:08:20.448Z,95203.16
2023-04-18T10:10:47.645Z,95185.50
2023-04-18T10:13:14.833Z,95175.77
2023-04-18T10:15:45.632Z,95178.21
2023-04-18T10:18:16.624Z,95175.38
2023-04-18T10:20:46.500Z,95184.05
2023-04-18T10:23:34.100Z,95184.77
2023-04-18T10:26:01.826Z,95184.91
2023-04-18T10:29:03.430Z,95184.98
2023-04-18T10:31:38.338Z,95189.10
2023-04-18T10:34:07.154Z,95189.54
2023-04-18T10:36:34.353Z,95186.54
2023-04-18T10:39:22.425Z,95188.98
2023-04-18T10:41:51.223Z,95182.19
2023-04-18T10:44:20.794Z,95184.14
2023-04-18T10:46:47.764Z,95178.56
2023-04-18T10:49:17.645Z,95181.70
2023-04-18T10:51:45.778Z,95181.73
2023-04-18T10:54:17.413Z,95179.24
2023-04-18T10:56:54.323Z,95184.05
2023-04-18T10:59:23.660Z,95179.37
2023-04-18T11:01:55.686Z,95181.66
2023-04-18T11:04:26.315Z,95175.10
2023-04-18T11:06:57.895Z,95187.00
2023-04-18T11:09:25.214Z,95177.32
2023-04-18T11:12:07.043Z,95178.20
2023-04-18T11:14:41.036Z,95182.50
2023-04-18T11:17:15.283Z,95178.87
2023-04-18T11:19:42.941Z,95172.66
2023-04-18T11:22:11.802Z,95175.45
2023-04-18T11:24:39.702Z,95173.14
2023-04-18T11:27:10.365Z,95175.98
2023-04-18T11:29:37.821Z,95178.33
2023-04-18T11:32:06.906Z,95174.63
2023-04-18T11:34:35.225Z,95173.66
2023-04-18T11:37:05.981Z,95172.78
2023-04-18T11:39:43.606Z,95174.13
2023-04-18T11:42:10.880Z,95173.85
2023-04-18T11:44:39.408Z,95164.36
2023-04-18T11:47:39.203Z,95166.17
2023-04-18T11:50:07.668Z,95173.69
2023-04-18T11:52:35.862Z,95161.06
2023-04-18T11:55:13.230Z,95158.02
2023-04-18T11:57:41.440Z,95151.48
2023-04-18T12:00:10.712Z,95150.05
2023-04-18T12:02:43.434Z,95157.09
2023-04-18T12:05:11.579Z,95149.21
2023-04-18T12:07:41.593Z,95150.03
2023-04-18T12:10:22.916Z,95146.36
2023-04-18T12:12:51.567Z,95142.60
2023-04-18T12:15:19.361Z,95148.61
2023-04-18T12:17:53.234Z,95153.75
2023-04-18T12:20:24.655Z,95143.85
2023-04-18T12:22:53.763Z,95147.23
2023-04-18T12:25:27.387Z,95148.86
2023-04-18T12:27:54.816Z,95145.41
2023-04-18T12:30:24.382Z,95149.63
2023-04-18T12:32:52.668Z,95147.21
2023-04-18T12:35:21.159Z,95148.05
2023-04-18T12:37:49.046Z,95157.40
2023-04-18T12:40:18.561Z,95141.35
2023-04-18T12:42:46.433Z,95137.86
2023-04-18T12:45:14.148Z,95135.29
2023-04-18T12:47:43.224Z,95137.42
2023-04-18T12:50:11.680Z,95144.05
2023-04-18T12:52:40.213Z,95140.17
2023-04-18T12:55:08.184Z,95136.02
2023-04-18T12:57:36.057Z,95132.63
2023-04-18T13:00:14.563Z,95134.69
2023-04-18T13:02:44.266Z,95134.23
2023-04-18T13:05:12.562Z,95129.98
2023-04-18T13:07:42.089Z,95135.42
2023-04-18T13:10:11.173Z,95138.05
2023-04-18T13:12:39.144Z,95132.80
2023-04-18T13:15:08.164Z,95127.59
2023-04-18T13:17:36.908Z,95121.45
2023-04-18T13:20:09.972Z,95122.13
2023-04-18T13:22:37.177Z,95120.55
2023-04-18T13:25:06.092Z,95120.02
2023-04-18T13:27:33.346Z,95119.76
2023-04-18T13:30:01.630Z,95113.15
2023-04-18T13:32:28.884Z,95123.35
2023-04-18T13:34:57.466Z,95121.39
2023-04-18T13:37:25.847Z,95117.85
2023-04-18T13:39:53.481Z,95119.25
2023-04-18T13:42:20.507Z,95118.98
2023-04-18T13:44:47.584Z,95122.73
2023-04-18T13:47:14.513Z,95125.87
2023-04-18T13:49:42.020Z,95122.71
2023-04-18T13:52:08.950Z,95116.00
2023-04-18T13:54:37.089Z,95116.63
2023-04-18T13:57:03.985Z,95114.10
2023-04-18T13:59:31.940Z,95113.58
2023-04-18T14:02:00.688Z,95112.64
2023-04-18T14:04:27.881Z,95113.30
2023-04-18T14:06:55.237Z,95110.10
2023-04-18T14:09:22.371Z,95106.48
2023-04-18T14:11:50.836Z,95100.05
2023-04-18T14:14:18.641Z,95100.38
2023-04-18T14:16:45.604Z,95105.67
2023-04-18T14:19:12.610Z,95102.21
2023-04-18T14:21:39.785Z,95096.95
2023-04-18T14:24:07.752Z,95098.94
2023-04-18T14:26:34.483Z,95097.75
2023-04-18T14:29:03.534Z,95093.80
2023-04-18T14:31:30.358Z,95096.15
2023-04-18T14:33:57.572Z,95093.31
2023-04-18T14:36:24.551Z,95101.67
2023-04-18T14:38:51.495Z,95094.67
2023-04-18T14:41:18.515Z,95099.82
2023-04-18T14:43:45.578Z,95096.58
2023-04-18T14:46:16.018Z,95101.61
2023-04-18T14:48:48.416Z,95101.32
2023-04-18T14:51:16.037Z,95100.59
2023-04-18T14:53:42.842Z,95102.50
2023-04-18T14:56:10.506Z,95098.80
2023-04-18T14:58:37.496Z,95096.88
2023-04-18T15:01:04.781Z,95092.97
2023-04-18T15:03:31.985Z,95093.55
2023-04-18T15:05:59.188Z,95094.68
2023-04-18T15:08:26.235Z,95093.63
2023-04-18T15:10:53.679Z,95090.81
2023-04-18T15:13:21.445Z,95087.35
2023-04-18T15:15:55.839Z,95084.23
2023-04-18T15:18:23.617Z,95089.52
2023-04-18T15:20:51.229Z,95092.30
2023-04-18T15:23:18.101Z,95089.40
2023-04-18T15:25:46.271Z,95086.87
2023-04-18T15:28:15.667Z,95090.81
2023-04-18T15:30:43.752Z,95092.29
2023-04-18T15:33:14.682Z,95091.20
2023-04-18T15:35:42.863Z,95092.01
2023-04-18T15:38:10.501Z,95092.43
2023-04-18T15:40:38.785Z,95094.52
2023-04-18T15:43:05.821Z,95093.51
2023-04-18T15:45:34.374Z,95095.14
2023-04-18T15:48:01.734Z,95099.23
2023-04-18T15:50:28.992Z,95100.50
2023-04-18T15:52:56.761Z,95095.10
2023-04-18T15:55:24.068Z,95100.02
2023-04-18T15:57:51.091Z,95099.05
2023-04-18T16:00:19.151Z,95098.86
2023-04-18T16:02:46.699Z,95098.72
2023-04-18T16:05:14.695Z,95100.41
2023-04-18T16:07:42.517Z,95105.91
2023-04-18T16:10:14.685Z,95106.52
2023-04-18T16:12:44.548Z,95107.63
2023-04-18T16:15:11.714Z,95105.95
2023-04-18T16:17:39.926Z,95106.40
2023-04-18T16:20:08.598Z,95108.31
2023-04-18T16:22:37.512Z,95105.29
2023-04-18T16:25:06.137Z,95105.39
2023-04-18T16:27:33.722Z,95107.58
2023-04-18T16:30:00.617Z,95106.84
2023-04-18T16:32:29.632Z,95108.44
2023-04-18T16:34:56.801Z,95108.45
2023-04-18T16:37:23.619Z,95109.65
2023-04-18T16:39:50.723Z,95107.31
2023-04-18T16:42:17.449Z,95105.34
2023-04-18T16:44:44.838Z,95106.32
2023-04-18T16:47:11.656Z,95106.50
2023-04-18T16:49:40.666Z,95107.60
2023-04-18T16:52:08.776Z,95104.27
2023-04-18T16:54:35.602Z,95106.55
2023-04-18T16:57:02.862Z,95108.73
2023-04-18T16:59:29.803Z,95113.41
2023-04-18T17:01:56.600Z,95117.80
2023-04-18T17:04:27.635Z,95118.15
2023-04-18T17:06:55.980Z,95114.23
2023-04-18T17:09:23.387Z,95115.38
2023-04-18T17:11:50.001Z,95117.50
2023-04-18T17:14:17.869Z,95115.88
2023-04-18T17:16:47.097Z,95114.87
2023-04-18T17:19:15.463Z,95118.38
2023-04-18T17:21:43.680Z,95118.11
2023-04-18T17:24:10.674Z,95117.68
2023-04-18T17:26:38.255Z,95113.98
2023-04-18T17:29:06.163Z,95119.07
2023-04-18T17:31:33.492Z,95114.32
2023-04-18T17:34:00.572Z,95113.57
2023-04-18T17:36:28.103Z,95115.70
2023-04-18T17:38:55.559Z,95118.57
2023-04-18T17:41:22.896Z,95121.07
2023-04-18T17:43:52.590Z,95126.73
2023-04-18T17:46:20.475Z,95122.48
2023-04-18T17:48:47.268Z,95124.67
2023-04-18T17:51:15.743Z,95124.35
2023-04-18T17:53:46.994Z,95127.92
2023-04-18T17:56:15.091Z,95130.12
2023-04-18T17:58:43.888Z,95134.03
2023-04-18T18:01:18.324Z,95129.61
2023-04-18T18:03:46.881Z,95129.50
2023-04-18T18:06:14.596Z,95126.41
2023-04-18T18:08:42.339Z,95130.16
2023-04-18T18:11:10.265Z,95127.65
2023-04-18T18:13:41.064Z,95124.86
2023-04-18T18:16:09.117Z,95124.55
2023-04-18T18:18:37.207Z,95127.80
2023-04-18T18:21:05.091Z,95127.54
2023-04-18T18:23:33.086Z,95123.95
2023-04-18T18:26:00.974Z,95118.58
2023-04-18T18:28:29.328Z,95118.73
2023-04-18T18:30:56.481Z,95117.88
2023-04-18T18:33:23.349Z,95115.48
2023-04-18T18:35:50.788Z,95120.29
2023-04-18T18:38:18.193Z,95122.37
2023-04-18T18:40:45.129Z,95118.48
2023-04-18T18:43:12.472Z,95120.86
2023-04-18T18:45:39.374Z,95115.70
2023-04-18T18:48:07.162Z,95118.02
2023-04-18T18:50:34.363Z,95116.63
2023-04-18T18:53:01.649Z,95116.18
2023-04-18T18:55:29.529Z,95116.73
2023-04-18T18:57:56.635Z,95112.35
2023-04-18T19:00:24.402Z,95112.87
2023-04-18T19:02:51.511Z,95112.63
2023-04-18T19:05:18.470Z,95110.84
2023-04-18T19:07:46.416Z,95112.69
2023-04-18T19:10:13.747Z,95113.21
2023-04-18T19:12:41.771Z,95112.20
2023-04-18T19:15:09.428Z,95112.48
2023-04-18T19:17:36.092Z,95110.42
2023-04-18T19:20:03.272Z,95114.91
2023-04-18T19:22:31.911Z,95120.58
2023-04-18T19:25:00.283Z,95118.02
2023-04-18T19:27:27.540Z,95117.52
2023-04-18T19:29:54.494Z,95116.15
2023-04-18T19:32:21.331Z,95115.46
2023-04-18T19:34:51.183Z,95116.27
2023-04-18T19:37:19.102Z,95114.86
2023-04-18T19:39:46.276Z,95114.09
2023-04-18T19:42:14.464Z,95114.20
2023-04-18T19:44:41.453Z,95114.55
2023-04-18T19:47:09.833Z,95111.46
2023-04-18T19:49:37.321Z,95113.00
2023-04-18T19:52:04.243Z,95108.53
2023-04-18T19:54:35.424Z,95109.39
2023-04-18T19:57:04.023Z,95106.93
2023-04-18T19:59:32.011Z,95108.15
2023-04-18T20:02:04.143Z,95110.76
2023-04-18T20:04:33.895Z,95111.14
2023-04-18T20:07:01.876Z,95109.91
2023-04-18T20:09:29.297Z,95112.75
2023-04-18T20:12:00.010Z,95116.29
2023-04-18T20:14:28.011Z,95116.73
2023-04-18T20:16:57.316Z,95117.50
2023-04-18T20:19:24.994Z,95122.41
2023-04-18T20:21:52.037Z,95119.88
2023-04-18T20:24:20.656Z,95119.52
2023-04-18T20:26:47.437Z,95123.48
2023-04-18T20:29:15.893Z,95121.00
2023-04-18T20:31:42.968Z,95119.49
2023-04-18T20:34:10.526Z,95119.05
2023-04-18T20:36:40.962Z,95117.55
2023-04-18T20:39:08.380Z,95117.39
2023-04-18T20:41:36.502Z,95116.35
2023-04-18T20:44:04.753Z,95112.25
2023-04-18T20:46:31.905Z,95112.58
2023-04-18T20:48:59.176Z,95109.45
2023-04-18T20:51:26.456Z,95109.80
2023-04-18T20:53:53.367Z,95108.85
2023-04-18T20:56:20.721Z,95110.16
2023-04-18T20:58:47.622Z,95110.02
2023-04-18T21:01:14.499Z,95108.09
2023-04-18T21:03:42.279Z,95111.38
2023-04-18T21:06:12.028Z,95106.66
2023-04-18T21:08:39.126Z,95106.75
2023-04-18T21:11:06.337Z,95106.64
2023-04-18T21:13:34.616Z,95107.52
2023-04-18T21:16:03.154Z,95104.50
2023-04-18T21:18:30.341Z,95103.51
2023-04-18T21:20:57.565Z,95101.08
2023-04-18T21:23:24.688Z,95102.19
2023-04-18T21:25:52.745Z,95100.80
2023-04-18T21:28:20.609Z,95098.88
2023-04-18T21:30:47.701Z,95098.45
2023-04-18T21:33:15.323Z,95096.27
2023-04-18T21:35:42.722Z,95094.52
2023-04-18T21:38:09.566Z,95096.23
2023-04-18T21:40:37.229Z,95093.40
2023-04-18T21:43:04.824Z,95093.89
2023-04-18T21:45:33.272Z,95091.66
2023-04-18T21:48:00.520Z,95094.45
2023-04-18T21:50:27.576Z,95095.54
2023-04-18T21:52:54.396Z,95096.41
2023-04-18T21:55:21.307Z,95095.73
2023-04-18T21:57:49.253Z,95091.77
2023-04-18T22:00:17.403Z,95092.38
2023-04-18T22:02:45.582Z,95096.23
2023-04-18T22:05:17.716Z,95097.55
2023-04-18T22:07:54.999Z,95098.30
2023-04-18T22:10:25.629Z,95092.09
2023-04-18T22:12:56.056Z,95092.40
2023-04-18T22:15:23.718Z,95089.86
2023-04-18T22:17:50.666Z,95090.85
2023-04-18T22:20:19.587Z,95090.26
2023-04-18T22:22:46.764Z,95088.98
2023-04-18T22:25:13.764Z,95086.59
2023-04-18T22:27:42.225Z,95088.27
2023-04-18T22:30:09.173Z,95090.29
2023-04-18T22:32:36.250Z,95089.09
2023-04-18T22:35:03.516Z,95087.78
2023-04-18T22:37:30.794Z,95086.00
2023-04-18T22:39:58.605Z,95086.23
2023-04-18T22:42:25.645Z,95084.64
2023-04-18T22:44:53.359Z,95078.67
2023-04-18T22:47:20.765Z,95077.52
2023-04-18T22:49:47.819Z,95077.29
2023-04-18T22:52:15.410Z,95073.98
2023-04-18T22:54:42.275Z,95072.87
2023-04-18T22:57:10.415Z,95071.45
2023-04-18T22:59:37.470Z,95066.98
2023-04-18T23:02:04.608Z,95069.55
2023-04-18T23:04:32.438Z,95069.70
2023-04-18T23:06:59.411Z,95065.63
2023-04-18T23:09:26.977Z,95066.31
2023-04-18T23:11:53.691Z,95062.02
2023-04-18T23:14:20.942Z,95061.42
2023-04-18T23:16:49.138Z,95061.19
2023-04-18T23:19:16.251Z,95060.14
2023-04-18T23:21:43.119Z,95058.01
2023-04-18T23:24:11.544Z,95055.61
2023-04-18T23:26:39.055Z,95056.48
2023-04-18T23:29:06.527Z,95052.29
2023-04-18T23:31:34.725Z,95048.16
2023-04-18T23:34:01.983Z,95045.39
2023-04-18T23:36:30.741Z,95043.09
2023-04-18T23:39:00.189Z,95043.00
2023-04-18T23:41:28.425Z,95041.44
2023-04-18T23:43:55.110Z,95041.41
2023-04-18T23:46:21.915Z,95037.75
2023-04-18T23:48:48.886Z,95036.39
2023-04-18T23:51:16.238Z,95030.88
2023-04-18T23:53:44.238Z,95029.91
2023-04-18T23:56:12.761Z,95024.92
2023-04-18T23:58:41.806Z,95021.85
